Time;durP1;ratioP1;P1;durP2;ratioP2;P2;SDS_P1;SDS_P2;PMS_P1;PMS_P2;Temp;Humidity;BMP_temperature;BMP_pressure;BME280_temperature;BME280_humidity;BME280_pressure;Samples;Min_cycle;Max_cycle;Signal;HPM_P1;HPM_P2
2022/02/13 00:00:56;;;;;;;;;17.25;14.50;;;;;;;;5048067;28;45160;-93
2022/02/13 00:03:23;;;;;;;;;22.00;13.75;;;;;;;;5038110;28;45916;-94
2022/02/13 00:05:49;;;;;;;;;18.00;15.25;;;;;;;;5018940;28;45348;-94
2022/02/13 00:08:14;;;;;;;;;18.25;16.25;;;;;;;;5024930;28;45358;-94
2022/02/13 00:10:40;;;;;;;;;21.25;17.00;;;;;;;;5054689;28;45383;-95
2022/02/13 00:13:05;;;;;;;;;20.50;17.75;;;;;;;;5018315;28;47698;-94
2022/02/13 00:15:31;;;;;;;;;18.75;15.25;;;;;;;;5024596;28;45612;-94
2022/02/13 00:17:56;;;;;;;;;18.75;16.00;;;;;;;;5016395;28;45542;-94
2022/02/13 00:20:21;;;;;;;;;21.75;21.50;;;;;;;;5017591;28;45482;-93
2022/02/13 00:22:46;;;;;;;;;19.75;16.50;;;;;;;;5016778;28;46890;-94
2022/02/13 00:25:12;;;;;;;;;15.25;15.25;;;;;;;;4997578;28;45382;-94
2022/02/13 00:27:37;;;;;;;;;18.25;15.25;;;;;;;;5005442;28;45525;-94
2022/02/13 00:30:03;;;;;;;;;18.00;14.75;;;;;;;;5024278;28;45478;-94
2022/02/13 00:32:28;;;;;;;;;20.75;18.50;;;;;;;;5016977;28;47875;-94
2022/02/13 00:34:53;;;;;;;;;19.50;18.50;;;;;;;;5016259;28;45878;-94
2022/02/13 00:37:19;;;;;;;;;18.00;17.50;;;;;;;;5025449;28;45456;-94
2022/02/13 00:39:44;;;;;;;;;19.75;15.00;;;;;;;;5072055;27;45367;-93
2022/02/13 00:42:09;;;;;;;;;20.25;17.00;;;;;;;;5082246;27;46063;-94
2022/02/13 00:44:34;;;;;;;;;24.50;20.25;;;;;;;;5062813;27;45411;-94
2022/02/13 00:47:00;;;;;;;;;13.50;12.50;;;;;;;;5074043;28;45344;-94
2022/02/13 00:49:25;;;;;;;;;18.00;14.75;;;;;;;;5058663;28;45588;-94
2022/02/13 00:51:50;;;;;;;;;20.25;15.00;;;;;;;;5071011;27;48145;-93
2022/02/13 00:54:16;;;;;;;;;20.00;18.75;;;;;;;;5069345;27;45270;-94
2022/02/13 00:56:41;;;;;;;;;14.25;14.25;;;;;;;;5072794;27;45231;-94
2022/02/13 00:59:07;;;;;;;;;21.75;16.75;;;;;;;;5053573;28;45305;-95
2022/02/13 01:01:32;;;;;;;;;18.25;15.25;;;;;;;;5037953;28;48353;-94
2022/02/13 01:03:57;;;;;;;;;16.75;16.75;;;;;;;;5037943;28;45453;-95
2022/02/13 01:06:24;;;;;;;;;19.75;17.25;;;;;;;;5023000;28;45313;-94
2022/02/13 01:08:49;;;;;;;;;15.25;14.25;;;;;;;;5029085;28;45593;-95
2022/02/13 01:11:15;;;;;;;;;19.00;14.00;;;;;;;;5054978;28;45742;-93
2022/02/13 01:13:40;;;;;;;;;15.00;14.25;;;;;;;;5037321;28;45843;-94
2022/02/13 01:16:05;;;;;;;;;16.50;14.75;;;;;;;;5018278;28;45346;-94
2022/02/13 01:18:30;;;;;;;;;14.50;13.00;;;;;;;;5043113;28;45442;-94
2022/02/13 01:20:57;;;;;;;;;14.75;14.00;;;;;;;;5048881;28;47155;-94
2022/02/13 01:23:22;;;;;;;;;16.25;12.50;;;;;;;;5052584;28;45829;-94
2022/02/13 01:25:47;;;;;;;;;13.25;13.25;;;;;;;;5051958;28;45530;-95
2022/02/13 01:28:12;;;;;;;;;19.75;18.75;;;;;;;;5056486;28;45524;-95
2022/02/13 01:30:38;;;;;;;;;19.50;17.25;;;;;;;;5053215;28;47553;-94
2022/02/13 01:33:03;;;;;;;;;17.50;14.00;;;;;;;;5048482;28;45476;-94
2022/02/13 01:35:29;;;;;;;;;19.00;15.00;;;;;;;;5057374;28;45755;-94
2022/02/13 01:37:54;;;;;;;;;19.50;14.00;;;;;;;;5037133;28;45977;-94
2022/02/13 01:40:19;;;;;;;;;12.50;10.75;;;;;;;;5036428;28;47228;-94
2022/02/13 01:42:44;;;;;;;;;15.00;12.50;;;;;;;;5056358;28;45821;-94
2022/02/13 01:45:10;;;;;;;;;16.25;13.00;;;;;;;;5042340;28;45396;-94
2022/02/13 01:47:36;;;;;;;;;17.00;14.50;;;;;;;;5036718;28;45547;-94
2022/02/13 01:50:03;;;;;;;;;16.50;16.00;;;;;;;;5032382;28;46961;-94
2022/02/13 01:52:29;;;;;;;;;15.75;12.75;;;;;;;;5016489;28;45545;-94
2022/02/13 01:54:54;;;;;;;;;19.75;15.75;;;;;;;;5048482;28;45228;-94
2022/02/13 01:57:21;;;;;;;;;19.25;15.75;;;;;;;;5055550;27;45330;-94
2022/02/13 01:59:46;;;;;;;;;16.25;15.00;;;;;;;;5072196;27;47946;-94
2022/02/13 02:02:11;;;;;;;;;13.75;12.00;;;;;;;;5070271;27;45488;-94
2022/02/13 02:04:37;;;;;;;;;18.25;15.25;;;;;;;;5077432;27;45415;-94
2022/02/13 02:07:03;;;;;;;;;19.25;15.75;;;;;;;;5076998;27;45446;-95
2022/02/13 02:09:28;;;;;;;;;18.50;15.75;;;;;;;;5056612;28;48265;-94
2022/02/13 02:11:54;;;;;;;;;20.00;15.00;;;;;;;;5053023;28;45489;-94
2022/02/13 02:14:19;;;;;;;;;17.00;15.00;;;;;;;;5064679;27;45862;-94
2022/02/13 02:16:45;;;;;;;;;23.00;17.75;;;;;;;;5077460;27;45432;-95
2022/02/13 02:19:10;;;;;;;;;20.00;15.50;;;;;;;;5077747;27;47307;-94
2022/02/13 02:21:42;;;;;;;;;10.75;10.25;;;;;;;;5082090;27;45230;-93
2022/02/13 02:24:15;;;;;;;;;21.75;16.50;;;;;;;;5092701;27;44788;-93
2022/02/13 02:26:40;;;;;;;;;22.50;19.00;;;;;;;;5103184;27;44820;-94
2022/02/13 02:29:05;;;;;;;;;27.25;21.00;;;;;;;;5088756;27;47425;-94
2022/02/13 02:31:31;;;;;;;;;20.75;18.50;;;;;;;;5064943;28;45469;-94
2022/02/13 02:33:56;;;;;;;;;22.00;21.00;;;;;;;;5060372;28;45400;-94
2022/02/13 02:36:21;;;;;;;;;17.50;15.50;;;;;;;;5076472;27;45347;-94
2022/02/13 02:38:47;;;;;;;;;18.75;17.75;;;;;;;;5065003;28;47209;-95
2022/02/13 02:41:13;;;;;;;;;18.50;17.75;;;;;;;;5039973;28;45365;-94
2022/02/13 02:43:38;;;;;;;;;19.00;17.75;;;;;;;;5039729;27;45496;-94
2022/02/13 02:46:03;;;;;;;;;21.25;19.00;;;;;;;;5040010;28;45618;-94
2022/02/13 02:48:29;;;;;;;;;24.50;22.25;;;;;;;;5055668;27;47059;-94
2022/02/13 02:50:54;;;;;;;;;25.00;21.50;;;;;;;;5064657;28;45451;-94
2022/02/13 02:53:19;;;;;;;;;37.75;29.75;;;;;;;;5043861;28;45382;-94
2022/02/13 02:55:44;;;;;;;;;40.00;32.00;;;;;;;;5038830;27;48609;-94
2022/02/13 02:58:10;;;;;;;;;39.25;34.00;;;;;;;;5057478;28;47025;-94
2022/02/13 03:00:35;;;;;;;;;38.50;30.75;;;;;;;;5057343;28;45464;-94
2022/02/13 03:03:00;;;;;;;;;39.00;32.50;;;;;;;;5069334;28;45458;-94
2022/02/13 03:05:25;;;;;;;;;43.50;38.75;;;;;;;;5069064;27;45498;-94
2022/02/13 03:07:51;;;;;;;;;29.75;24.25;;;;;;;;5090323;27;45820;-94
2022/02/13 03:10:16;;;;;;;;;26.00;22.00;;;;;;;;5055823;28;45603;-93
2022/02/13 03:12:41;;;;;;;;;23.25;23.25;;;;;;;;5084638;27;45304;-94
2022/02/13 03:15:07;;;;;;;;;21.25;21.25;;;;;;;;5087686;27;45420;-94
2022/02/13 03:17:32;;;;;;;;;22.00;20.25;;;;;;;;5087079;27;48419;-95
2022/02/13 03:19:57;;;;;;;;;19.75;19.00;;;;;;;;5077097;28;45502;-95
2022/02/13 03:22:22;;;;;;;;;24.25;21.25;;;;;;;;5079856;27;45497;-94
2022/02/13 03:24:48;;;;;;;;;15.00;15.00;;;;;;;;5091458;27;45287;-94
2022/02/13 03:27:13;;;;;;;;;21.25;21.25;;;;;;;;5080438;27;47653;-94
2022/02/13 03:29:38;;;;;;;;;27.25;26.00;;;;;;;;5066554;27;45624;-95
2022/02/13 03:32:03;;;;;;;;;25.25;21.75;;;;;;;;5075722;28;45498;-94
2022/02/13 03:34:29;;;;;;;;;34.00;27.00;;;;;;;;5075531;27;45561;-94
2022/02/13 03:36:54;;;;;;;;;22.25;21.75;;;;;;;;5075671;28;47470;-94
2022/02/13 03:39:21;;;;;;;;;24.50;21.25;;;;;;;;5091840;27;45323;-95
2022/02/13 03:41:46;;;;;;;;;25.50;21.50;;;;;;;;5089167;27;45592;-94
2022/02/13 03:44:11;;;;;;;;;21.00;19.00;;;;;;;;5077426;27;45529;-94
2022/02/13 03:46:36;;;;;;;;;21.00;18.00;;;;;;;;5094945;27;47953;-94
2022/02/13 03:49:02;;;;;;;;;29.50;24.25;;;;;;;;5076068;28;45473;-94
2022/02/13 03:51:27;;;;;;;;;23.00;20.50;;;;;;;;5072486;28;45489;-94
2022/02/13 03:53:52;;;;;;;;;22.00;21.25;;;;;;;;5070330;27;45396;-94
2022/02/13 03:56:18;;;;;;;;;20.50;19.25;;;;;;;;5085516;27;46987;-95
2022/02/13 03:58:43;;;;;;;;;24.25;20.00;;;;;;;;5056042;27;45887;-94
2022/02/13 04:01:08;;;;;;;;;22.25;20.00;;;;;;;;5055957;28;45680;-94
2022/02/13 04:03:33;;;;;;;;;24.75;22.00;;;;;;;;5056599;28;45488;-94
2022/02/13 04:05:59;;;;;;;;;19.25;18.50;;;;;;;;5068229;27;48669;-94
2022/02/13 04:08:24;;;;;;;;;26.25;20.25;;;;;;;;5075289;28;45997;-93
2022/02/13 04:10:50;;;;;;;;;23.00;19.00;;;;;;;;5092327;27;45488;-94
2022/02/13 04:13:15;;;;;;;;;28.25;23.50;;;;;;;;5095009;27;45692;-94
2022/02/13 04:15:40;;;;;;;;;28.25;26.50;;;;;;;;5076999;27;48025;-94
2022/02/13 04:18:10;;;;;;;;;29.50;22.50;;;;;;;;5071838;27;45480;-94
2022/02/13 04:20:35;;;;;;;;;20.75;16.25;;;;;;;;5069788;27;45267;-94
2022/02/13 04:23:00;;;;;;;;;23.75;18.50;;;;;;;;5090662;27;45311;-94
2022/02/13 04:25:25;;;;;;;;;21.75;21.00;;;;;;;;5068812;28;46962;-94
2022/02/13 04:27:51;;;;;;;;;20.25;18.50;;;;;;;;5086336;27;45524;-94
2022/02/13 04:30:16;;;;;;;;;27.50;22.75;;;;;;;;5080908;27;45476;-94
2022/02/13 04:32:41;;;;;;;;;17.50;16.50;;;;;;;;5081803;27;45584;-95
2022/02/13 04:35:06;;;;;;;;;19.75;18.50;;;;;;;;5089357;27;47999;-94
2022/02/13 04:37:32;;;;;;;;;24.00;19.25;;;;;;;;5073866;28;45815;-94
2022/02/13 04:39:57;;;;;;;;;23.75;18.75;;;;;;;;5088592;27;45355;-94
2022/02/13 04:42:22;;;;;;;;;22.75;19.75;;;;;;;;5073735;27;45321;-94
2022/02/13 04:44:48;;;;;;;;;18.75;16.75;;;;;;;;5063116;27;48068;-94
2022/02/13 04:47:13;;;;;;;;;17.25;16.75;;;;;;;;5073530;28;45851;-95
2022/02/13 04:49:38;;;;;;;;;25.50;18.00;;;;;;;;5077404;27;45525;-94
2022/02/13 04:52:04;;;;;;;;;26.25;23.00;;;;;;;;5055221;28;45432;-94
2022/02/13 04:54:30;;;;;;;;;22.50;17.25;;;;;;;;5071323;28;47211;-94
2022/02/13 04:56:55;;;;;;;;;25.25;21.25;;;;;;;;5075439;27;45947;-94
2022/02/13 04:59:20;;;;;;;;;19.75;17.25;;;;;;;;5069826;28;45564;-94
2022/02/13 05:01:46;;;;;;;;;25.00;20.75;;;;;;;;5088116;27;45528;-94
2022/02/13 05:04:11;;;;;;;;;22.25;17.50;;;;;;;;5054347;28;47056;-93
2022/02/13 05:06:37;;;;;;;;;27.25;18.25;;;;;;;;5073438;27;45563;-94
2022/02/13 05:09:02;;;;;;;;;27.00;21.25;;;;;;;;5085787;27;45357;-94
2022/02/13 05:11:28;;;;;;;;;19.75;17.50;;;;;;;;5087814;27;45400;-94
2022/02/13 05:13:53;;;;;;;;;22.00;20.25;;;;;;;;5090850;27;48349;-95
2022/02/13 05:16:18;;;;;;;;;20.00;17.75;;;;;;;;5074799;28;45472;-93
2022/02/13 05:18:44;;;;;;;;;25.00;17.25;;;;;;;;5089599;27;45248;-94
2022/02/13 05:21:09;;;;;;;;;25.75;20.50;;;;;;;;5086362;27;45578;-94
2022/02/13 05:23:34;;;;;;;;;20.00;14.50;;;;;;;;5084850;27;47526;-93
2022/02/13 05:26:01;;;;;;;;;21.50;18.25;;;;;;;;5091050;27;45413;-94
2022/02/13 05:28:27;;;;;;;;;24.00;19.25;;;;;;;;5076215;28;45402;-94
2022/02/13 05:30:52;;;;;;;;;20.00;17.00;;;;;;;;5090628;27;45455;-94
2022/02/13 05:33:17;;;;;;;;;25.00;22.75;;;;;;;;5075409;27;47895;-95
2022/02/13 05:35:42;;;;;;;;;19.75;16.75;;;;;;;;5074627;27;45503;-93
2022/02/13 05:38:07;;;;;;;;;17.50;14.50;;;;;;;;5074798;27;45439;-93
2022/02/13 05:40:33;;;;;;;;;18.00;17.00;;;;;;;;5073806;28;45369;-93
2022/02/13 05:42:58;;;;;;;;;21.50;18.50;;;;;;;;5085808;27;47042;-93
2022/02/13 05:45:24;;;;;;;;;20.50;19.00;;;;;;;;5084366;27;45563;-93
2022/02/13 05:47:50;;;;;;;;;18.00;16.25;;;;;;;;5085283;27;45421;-94
2022/02/13 05:50:15;;;;;;;;;18.50;17.50;;;;;;;;5087294;27;45385;-94
2022/02/13 05:52:40;;;;;;;;;4.75;4.00;;;;;;;;5091376;27;45609;-94
2022/02/13 05:55:05;;;;;;;;;19.75;18.00;;;;;;;;5079517;27;45652;-94
2022/02/13 05:57:31;;;;;;;;;22.25;19.50;;;;;;;;5071831;28;45787;-93
2022/02/13 05:59:56;;;;;;;;;24.25;17.50;;;;;;;;5073870;28;45333;-94
2022/02/13 06:02:21;;;;;;;;;17.25;17.25;;;;;;;;5092893;27;47867;-95
2022/02/13 06:04:46;;;;;;;;;15.75;15.75;;;;;;;;5088745;27;44962;-95
2022/02/13 06:07:12;;;;;;;;;18.00;16.75;;;;;;;;5115578;27;44794;-95
2022/02/13 06:09:37;;;;;;;;;17.00;14.50;;;;;;;;5118291;27;44935;-95
2022/02/13 06:12:03;;;;;;;;;17.75;15.00;;;;;;;;5088420;27;45370;-93
2022/02/13 06:14:28;;;;;;;;;19.00;16.50;;;;;;;;5061327;28;45739;-92
2022/02/13 06:16:55;;;;;;;;;18.75;14.25;;;;;;;;5090809;27;45498;-93
2022/02/13 06:19:20;;;;;;;;;15.75;15.75;;;;;;;;5081556;27;45644;-92
2022/02/13 06:21:45;;;;;;;;;19.50;17.50;;;;;;;;5086903;27;47238;-92
2022/02/13 06:24:11;;;;;;;;;17.50;16.50;;;;;;;;5091833;27;45358;-93
2022/02/13 06:26:36;;;;;;;;;19.00;14.00;;;;;;;;5089494;27;45638;-93
2022/02/13 06:29:02;;;;;;;;;18.25;15.25;;;;;;;;5074019;27;45534;-94
2022/02/13 06:31:27;;;;;;;;;18.50;16.25;;;;;;;;5097827;27;47277;-94
2022/02/13 06:33:53;;;;;;;;;16.50;15.50;;;;;;;;5081038;27;45403;-95
2022/02/13 06:36:18;;;;;;;;;22.50;21.50;;;;;;;;5076437;27;45406;-94
2022/02/13 06:38:43;;;;;;;;;17.00;13.00;;;;;;;;5069015;27;45432;-94
2022/02/13 06:41:08;;;;;;;;;14.00;10.00;;;;;;;;5091201;27;48170;-95
2022/02/13 06:43:35;;;;;;;;;20.25;16.25;;;;;;;;5075242;28;45860;-94
2022/02/13 06:46:00;;;;;;;;;15.00;15.00;;;;;;;;5056433;28;45513;-95
2022/02/13 06:48:30;;;;;;;;;20.25;18.50;;;;;;;;5056258;27;45649;-94
2022/02/13 06:50:55;;;;;;;;;19.50;17.75;;;;;;;;5074104;27;48158;-94
2022/02/13 06:53:21;;;;;;;;;20.50;17.75;;;;;;;;5089056;27;45438;-94
2022/02/13 06:55:46;;;;;;;;;17.75;15.75;;;;;;;;5074275;28;45640;-94
2022/02/13 06:58:11;;;;;;;;;21.75;17.50;;;;;;;;5094634;27;45405;-94
2022/02/13 07:00:40;;;;;;;;;19.00;16.25;;;;;;;;5061854;28;47257;-92
2022/02/13 07:03:05;;;;;;;;;20.50;19.00;;;;;;;;5064015;28;45376;-93
2022/02/13 07:05:31;;;;;;;;;22.25;17.75;;;;;;;;5068248;27;45665;-93
2022/02/13 07:07:56;;;;;;;;;22.25;18.50;;;;;;;;5055653;28;45447;-93
2022/02/13 07:10:22;;;;;;;;;21.00;15.25;;;;;;;;5069596;27;48144;-94
2022/02/13 07:12:47;;;;;;;;;20.25;17.50;;;;;;;;5059502;28;46107;-94
2022/02/13 07:15:12;;;;;;;;;27.00;22.00;;;;;;;;5059243;28;45356;-89
2022/02/13 07:17:38;;;;;;;;;20.75;20.75;;;;;;;;5077330;27;46524;-90
2022/02/13 07:20:04;;;;;;;;;18.25;16.00;;;;;;;;5072298;27;45376;-89
2022/02/13 07:22:29;;;;;;;;;18.00;16.25;;;;;;;;5077997;27;45466;-89
2022/02/13 07:24:54;;;;;;;;;20.50;17.50;;;;;;;;5074026;27;45546;-89
2022/02/13 07:27:19;;;;;;;;;17.00;17.00;;;;;;;;5070820;27;45456;-89
2022/02/13 07:29:44;;;;;;;;;18.00;14.75;;;;;;;;5060931;27;47888;-89
2022/02/13 07:32:10;;;;;;;;;14.50;12.50;;;;;;;;5073941;27;45378;-88
2022/02/13 07:34:35;;;;;;;;;9.25;8.75;;;;;;;;5077474;27;45860;-89
2022/02/13 07:37:03;;;;;;;;;18.75;17.50;;;;;;;;5078293;27;45386;-91
2022/02/13 07:39:29;;;;;;;;;17.75;15.25;;;;;;;;5075582;27;45781;-89
2022/02/13 07:41:55;;;;;;;;;21.25;17.50;;;;;;;;5076951;27;45442;-91
2022/02/13 07:44:20;;;;;;;;;24.25;18.00;;;;;;;;5067004;27;45469;-91
2022/02/13 07:46:45;;;;;;;;;0.00;0.00;;;;;;;;5055358;27;45461;-91
2022/02/13 07:49:10;;;;;;;;;19.00;17.00;;;;;;;;5065100;28;48518;-90
2022/02/13 07:51:36;;;;;;;;;23.50;18.00;;;;;;;;5080969;27;45487;-91
2022/02/13 07:54:01;;;;;;;;;14.75;14.00;;;;;;;;5082009;27;45457;-90
2022/02/13 07:56:27;;;;;;;;;16.25;13.50;;;;;;;;5058281;27;45624;-89
2022/02/13 07:58:52;;;;;;;;;18.25;17.00;;;;;;;;5083729;27;45532;-89
2022/02/13 08:01:19;;;;;;;;;13.00;9.00;;;;;;;;5060660;28;45664;-90
2022/02/13 08:03:45;;;;;;;;;18.75;17.25;;;;;;;;5067095;27;45594;-90
2022/02/13 08:06:10;;;;;;;;;22.50;20.00;;;;;;;;5063383;28;45587;-90
2022/02/13 08:08:36;;;;;;;;;14.50;14.25;;;;;;;;5067428;27;45525;-90
2022/02/13 08:11:01;;;;;;;;;19.75;17.25;;;;;;;;5084759;27;45595;-89
2022/02/13 08:13:27;;;;;;;;;23.25;15.75;;;;;;;;5053461;28;45592;-90
2022/02/13 08:15:53;;;;;;;;;19.50;15.50;;;;;;;;5065577;27;45667;-90
2022/02/13 08:18:18;;;;;;;;;22.25;20.50;;;;;;;;5078611;27;46157;-90
2022/02/13 08:20:43;;;;;;;;;21.25;19.00;;;;;;;;5059147;27;45649;-90
2022/02/13 08:23:10;;;;;;;;;17.50;14.75;;;;;;;;5069852;27;45388;-92
2022/02/13 08:25:35;;;;;;;;;19.00;18.50;;;;;;;;5057115;27;45371;-92
2022/02/13 08:28:00;;;;;;;;;17.25;16.75;;;;;;;;5051585;28;47203;-92
2022/02/13 08:30:26;;;;;;;;;15.00;13.25;;;;;;;;5076743;27;45546;-92
2022/02/13 08:32:51;;;;;;;;;22.00;17.25;;;;;;;;5078739;27;45560;-92
2022/02/13 08:35:16;;;;;;;;;16.25;14.50;;;;;;;;5065087;27;45797;-91
2022/02/13 08:37:41;;;;;;;;;17.50;15.50;;;;;;;;5072232;27;48364;-92
2022/02/13 08:40:07;;;;;;;;;19.00;15.25;;;;;;;;5072402;27;45449;-92
2022/02/13 08:42:32;;;;;;;;;17.00;17.00;;;;;;;;5060711;28;45501;-93
2022/02/13 08:44:57;;;;;;;;;21.50;17.75;;;;;;;;5062465;27;45485;-92
2022/02/13 08:47:23;;;;;;;;;19.50;16.25;;;;;;;;5070158;27;47479;-93
2022/02/13 08:49:49;;;;;;;;;23.50;18.50;;;;;;;;5078717;27;45289;-93
2022/02/13 08:52:14;;;;;;;;;22.50;19.75;;;;;;;;5075500;28;45414;-90
2022/02/13 08:54:40;;;;;;;;;22.25;19.25;;;;;;;;5058489;28;45905;-94
2022/02/13 08:57:05;;;;;;;;;18.50;15.25;;;;;;;;5058122;28;47498;-90
2022/02/13 08:59:30;;;;;;;;;19.50;16.75;;;;;;;;5073836;27;45443;-89
2022/02/13 09:01:55;;;;;;;;;22.00;19.50;;;;;;;;5074103;27;45458;-90
2022/02/13 09:04:20;;;;;;;;;17.00;15.25;;;;;;;;5078274;27;45519;-90
2022/02/13 09:06:46;;;;;;;;;26.25;22.25;;;;;;;;5085829;27;46257;-91
2022/02/13 09:09:12;;;;;;;;;19.50;17.00;;;;;;;;5077821;27;45445;-90
2022/02/13 09:11:37;;;;;;;;;17.75;14.50;;;;;;;;5085118;27;45529;-91
2022/02/13 09:14:04;;;;;;;;;21.00;17.50;;;;;;;;5081930;27;45543;-91
2022/02/13 09:16:31;;;;;;;;;24.00;21.00;;;;;;;;5088817;27;47375;-90
2022/02/13 09:18:56;;;;;;;;;24.50;19.00;;;;;;;;5093344;27;45316;-90
2022/02/13 09:21:22;;;;;;;;;23.75;17.25;;;;;;;;5075769;27;45495;-87
2022/02/13 09:23:47;;;;;;;;;18.75;15.25;;;;;;;;5067462;27;45780;-89
2022/02/13 09:26:12;;;;;;;;;22.00;19.50;;;;;;;;5079742;27;47762;-88
2022/02/13 09:28:37;;;;;;;;;20.75;19.50;;;;;;;;5075341;27;45549;-86
2022/02/13 09:31:04;;;;;;;;;19.75;19.50;;;;;;;;5081396;27;45505;-88
2022/02/13 09:33:29;;;;;;;;;15.25;14.00;;;;;;;;5077607;27;45565;-87
2022/02/13 09:35:54;;;;;;;;;19.25;18.00;;;;;;;;5070333;27;45850;-86
2022/02/13 09:38:19;;;;;;;;;18.50;17.50;;;;;;;;5072585;27;45372;-87
2022/02/13 09:40:47;;;;;;;;;22.00;18.00;;;;;;;;5088174;27;45459;-87
2022/02/13 09:43:13;;;;;;;;;24.00;18.50;;;;;;;;5081173;27;45401;-88
2022/02/13 09:45:40;;;;;;;;;20.50;17.50;;;;;;;;5084047;27;48401;-87
2022/02/13 09:48:06;;;;;;;;;20.50;17.75;;;;;;;;5082594;27;45489;-87
2022/02/13 09:50:32;;;;;;;;;28.50;19.75;;;;;;;;5090674;27;45652;-88
2022/02/13 09:52:57;;;;;;;;;16.00;16.00;;;;;;;;5074491;27;45520;-87
2022/02/13 09:55:25;;;;;;;;;21.50;19.25;;;;;;;;5083440;27;46472;-86
2022/02/13 09:58:00;;;;;;;;;19.75;17.50;;;;;;;;5077519;27;45453;-86
2022/02/13 10:00:49;;;;;;;;;21.25;18.75;;;;;;;;5075221;27;45297;-87
2022/02/13 10:03:25;;;;;;;;;19.00;19.00;;;;;;;;5058070;27;45763;-86
2022/02/13 10:05:51;;;;;;;;;19.50;15.50;;;;;;;;5075541;27;46174;-86
2022/02/13 10:08:29;;;;;;;;;16.00;16.00;;;;;;;;5067140;27;46114;-86
2022/02/13 10:11:13;;;;;;;;;20.50;18.25;;;;;;;;5068611;27;45454;-86
2022/02/13 10:13:44;;;;;;;;;25.75;20.75;;;;;;;;5079489;27;45620;-86
2022/02/13 10:16:16;;;;;;;;;23.00;19.50;;;;;;;;5074184;27;45646;-87
2022/02/13 10:18:52;;;;;;;;;21.75;20.50;;;;;;;;5071268;27;45953;-86
2022/02/13 10:21:31;;;;;;;;;22.75;21.50;;;;;;;;5067647;27;45480;-86
2022/02/13 10:24:16;;;;;;;;;21.00;18.75;;;;;;;;5074118;27;45459;-87
2022/02/13 10:26:45;;;;;;;;;18.00;15.25;;;;;;;;5070732;27;47605;-86
2022/02/13 10:29:11;;;;;;;;;19.33;18.00;;;;;;;;5066502;27;45798;-87
2022/02/13 10:31:36;;;;;;;;;22.00;22.00;;;;;;;;5067417;27;45451;-86
2022/02/13 10:34:02;;;;;;;;;20.75;18.25;;;;;;;;5087584;27;45617;-87
2022/02/13 10:36:27;;;;;;;;;21.50;19.50;;;;;;;;5071806;27;47684;-86
2022/02/13 10:38:53;;;;;;;;;21.50;18.75;;;;;;;;5069583;27;45771;-86
2022/02/13 10:41:24;;;;;;;;;21.50;19.50;;;;;;;;5073112;27;45542;-86
2022/02/13 10:44:04;;;;;;;;;24.75;20.00;;;;;;;;5076011;27;45684;-86
2022/02/13 10:46:31;;;;;;;;;22.50;21.00;;;;;;;;5074566;27;46529;-87
2022/02/13 10:48:56;;;;;;;;;24.25;22.50;;;;;;;;5078960;27;45517;-86
2022/02/13 10:51:22;;;;;;;;;26.00;24.00;;;;;;;;5078967;27;45525;-87
2022/02/13 10:53:47;;;;;;;;;24.75;19.25;;;;;;;;5071392;27;45490;-87
2022/02/13 10:56:13;;;;;;;;;22.75;20.00;;;;;;;;5071749;27;45433;-87
2022/02/13 10:58:38;;;;;;;;;23.25;19.25;;;;;;;;5075909;27;45515;-86
2022/02/13 11:01:04;;;;;;;;;20.75;20.25;;;;;;;;5080579;27;45477;-88
2022/02/13 11:03:31;;;;;;;;;20.50;19.50;;;;;;;;5100223;27;44750;-88
2022/02/13 11:06:00;;;;;;;;;24.00;18.67;;;;;;;;5081624;27;47881;-88
2022/02/13 11:08:28;;;;;;;;;23.33;20.67;;;;;;;;5078667;27;45953;-88
2022/02/13 11:10:56;;;;;;;;;17.33;16.00;;;;;;;;5086604;27;45284;-88
2022/02/13 11:13:23;;;;;;;;;20.33;15.33;;;;;;;;5078643;27;45632;-87
2022/02/13 11:15:49;;;;;;;;;19.33;18.67;;;;;;;;5074842;27;45749;-88
2022/02/13 11:18:33;;;;;;;;;14.00;12.33;;;;;;;;5079239;27;45544;-88
2022/02/13 11:20:58;;;;;;;;;17.33;16.00;;;;;;;;5087461;27;45598;-89
2022/02/13 11:23:24;;;;;;;;;20.00;15.67;;;;;;;;5074962;27;45352;-90
2022/02/13 11:25:52;;;;;;;;;21.00;17.33;;;;;;;;5077417;27;47154;-89
2022/02/13 11:28:23;;;;;;;;;14.00;13.67;;;;;;;;5081634;27;45133;-89
2022/02/13 11:30:49;;;;;;;;;21.33;16.67;;;;;;;;5084836;27;45483;-88
2022/02/13 11:33:24;;;;;;;;;17.00;15.00;;;;;;;;5081890;27;45574;-90
2022/02/13 11:35:59;;;;;;;;;17.67;16.33;;;;;;;;5073331;27;45468;-90
2022/02/13 11:38:43;;;;;;;;;20.00;14.67;;;;;;;;5070531;27;45621;-88
2022/02/13 11:41:08;;;;;;;;;22.67;16.33;;;;;;;;5068605;27;45517;-89
2022/02/13 11:43:49;;;;;;;;;13.33;13.33;;;;;;;;5086153;27;50379;-89
2022/02/13 11:46:40;;;;;;;;;17.33;14.67;;;;;;;;5083589;27;46868;-89
2022/02/13 11:49:08;;;;;;;;;14.67;12.67;;;;;;;;5095990;27;45693;-89
2022/02/13 11:51:45;;;;;;;;;14.00;10.00;;;;;;;;5079429;27;45329;-88
2022/02/13 11:54:10;;;;;;;;;16.33;13.00;;;;;;;;5077657;27;45462;-87
2022/02/13 11:56:35;;;;;;;;;18.67;15.67;;;;;;;;5065584;27;46053;-89
2022/02/13 11:59:00;;;;;;;;;19.00;15.33;;;;;;;;5084019;27;45510;-89
2022/02/13 12:01:35;;;;;;;;;18.33;16.00;;;;;;;;5066337;28;45241;-88
2022/02/13 12:04:01;;;;;;;;;14.00;11.67;;;;;;;;5064655;27;45415;-88
2022/02/13 12:06:27;;;;;;;;;18.00;16.00;;;;;;;;5079173;27;45670;-86
2022/02/13 12:08:57;;;;;;;;;18.67;16.00;;;;;;;;5061445;27;45965;-87
2022/02/13 12:11:28;;;;;;;;;16.67;14.33;;;;;;;;5088019;27;45573;-89
2022/02/13 12:13:53;;;;;;;;;16.33;16.00;;;;;;;;5057332;28;45574;-90
2022/02/13 12:16:23;;;;;;;;;17.33;16.00;;;;;;;;5092896;27;46624;-91
2022/02/13 12:18:50;;;;;;;;;17.33;14.67;;;;;;;;5072805;27;45624;-89
2022/02/13 12:21:15;;;;;;;;;13.00;13.00;;;;;;;;5073550;27;45438;-91
2022/02/13 12:23:41;;;;;;;;;19.00;16.00;;;;;;;;5078587;27;45408;-91
2022/02/13 12:26:06;;;;;;;;;12.67;12.00;;;;;;;;5053705;28;47235;-90
2022/02/13 12:28:33;;;;;;;;;21.33;17.00;;;;;;;;5061686;27;45814;-94
2022/02/13 12:31:00;;;;;;;;;16.00;15.33;;;;;;;;5072489;28;45321;-91
2022/02/13 12:33:26;;;;;;;;;17.33;15.00;;;;;;;;5072751;27;45721;-90
2022/02/13 12:35:58;;;;;;;;;14.67;13.00;;;;;;;;5066357;27;45454;-90
2022/02/13 12:38:24;;;;;;;;;14.67;11.33;;;;;;;;5072417;27;45569;-90
2022/02/13 12:40:50;;;;;;;;;14.67;12.67;;;;;;;;5054599;28;45475;-91
2022/02/13 12:43:16;;;;;;;;;19.33;14.33;;;;;;;;5059891;28;45601;-91
2022/02/13 12:45:43;;;;;;;;;17.00;16.00;;;;;;;;5079497;27;46242;-89
2022/02/13 12:48:14;;;;;;;;;15.00;15.00;;;;;;;;5059424;28;45518;-90
2022/02/13 12:50:40;;;;;;;;;17.33;12.33;;;;;;;;5052617;28;45419;-89
2022/02/13 12:53:09;;;;;;;;;14.67;11.00;;;;;;;;5069384;27;45442;-90
2022/02/13 12:55:36;;;;;;;;;12.33;12.00;;;;;;;;5056773;28;48253;-91
2022/02/13 12:58:02;;;;;;;;;14.00;13.00;;;;;;;;5059003;28;47177;-90
2022/02/13 13:00:28;;;;;;;;;13.00;11.00;;;;;;;;5060745;28;45455;-91
2022/02/13 13:02:53;;;;;;;;;17.33;14.33;;;;;;;;5049598;28;45645;-90
2022/02/13 13:05:21;;;;;;;;;14.33;13.00;;;;;;;;5051895;27;47115;-91
2022/02/13 13:07:46;;;;;;;;;16.33;13.67;;;;;;;;5065990;27;45514;-90
2022/02/13 13:10:18;;;;;;;;;15.33;13.00;;;;;;;;5056246;28;45561;-91
2022/02/13 13:12:44;;;;;;;;;15.00;13.00;;;;;;;;5061036;27;45648;-87
2022/02/13 13:15:18;;;;;;;;;15.00;14.00;;;;;;;;5069049;27;45539;-87
2022/02/13 13:17:43;;;;;;;;;14.33;14.00;;;;;;;;5072586;27;46215;-87
2022/02/13 13:20:28;;;;;;;;;14.33;12.00;;;;;;;;5072454;27;45418;-89
2022/02/13 13:23:13;;;;;;;;;17.33;15.33;;;;;;;;5051953;27;45728;-88
2022/02/13 13:25:38;;;;;;;;;12.00;11.67;;;;;;;;5063568;28;46560;-91
2022/02/13 13:28:06;;;;;;;;;15.67;15.00;;;;;;;;5076262;28;45459;-89
2022/02/13 13:30:31;;;;;;;;;11.33;11.33;;;;;;;;5082626;28;45550;-88
2022/02/13 13:33:00;;;;;;;;;17.67;15.67;;;;;;;;5066869;27;45547;-89
2022/02/13 13:35:26;;;;;;;;;15.33;13.33;;;;;;;;5072420;27;46443;-88
2022/02/13 13:37:54;;;;;;;;;14.67;14.00;;;;;;;;5070944;27;45610;-88
2022/02/13 13:40:26;;;;;;;;;22.67;16.67;;;;;;;;5054612;28;45478;-89
2022/02/13 13:42:57;;;;;;;;;15.67;14.00;;;;;;;;5057810;28;45771;-91
2022/02/13 13:45:34;;;;;;;;;17.00;15.00;;;;;;;;5056529;28;48390;-91
2022/02/13 13:47:59;;;;;;;;;20.00;15.00;;;;;;;;5055608;28;45439;-91
2022/02/13 13:50:36;;;;;;;;;20.33;16.67;;;;;;;;5053026;27;45852;-91
2022/02/13 13:53:04;;;;;;;;;13.67;13.00;;;;;;;;5049664;27;45446;-90
2022/02/13 13:55:29;;;;;;;;;18.00;15.33;;;;;;;;5076083;27;46363;-90
2022/02/13 13:57:55;;;;;;;;;15.00;11.00;;;;;;;;5054183;27;45531;-90
2022/02/13 14:00:20;;;;;;;;;16.33;13.33;;;;;;;;5033822;28;45510;-87
2022/02/13 14:03:00;;;;;;;;;18.00;14.33;;;;;;;;5048360;28;45532;-91
2022/02/13 14:05:36;;;;;;;;;14.00;12.00;;;;;;;;5031669;28;48121;-90
2022/02/13 14:08:02;;;;;;;;;3.00;2.00;;;;;;;;5027324;28;45606;-90
2022/02/13 14:10:29;;;;;;;;;20.33;16.00;;;;;;;;5050656;28;45414;-90
2022/02/13 14:12:54;;;;;;;;;23.67;19.33;;;;;;;;5051287;28;45685;-90